createdAt,value
2019-06-07T00:02:02.481Z,18.05
2019-06-07T00:04:33.215Z,18.04
2019-06-07T00:07:04.228Z,18.05
2019-06-07T00:09:34.949Z,18.03
2019-06-07T00:12:09.135Z,18.04
2019-06-07T00:14:38.612Z,18.07
2019-06-07T00:17:12.483Z,18.06
2019-06-07T00:19:41.895Z,18.06
2019-06-07T00:22:18.518Z,18.03
2019-06-07T00:24:45.360Z,18.04
2019-06-07T00:27:18.290Z,17.99
2019-06-07T00:29:48.873Z,18.01
2019-06-07T00:32:22.002Z,18.03
2019-06-07T00:34:52.325Z,18.03
2019-06-07T00:37:25.510Z,18.04
2019-06-07T00:40:13.534Z,18.02
2019-06-07T00:42:29.847Z,18.03
2019-06-07T00:45:00.845Z,18.04
2019-06-07T00:47:31.836Z,18.06
2019-06-07T00:50:02.555Z,18.05
2019-06-07T00:55:07.319Z,18.01
2019-06-07T00:57:39.416Z,18.01
2019-06-07T01:00:12.294Z,18.05
2019-06-07T01:02:43.434Z,18.02
2019-06-07T01:05:15.917Z,18.02
2019-06-07T01:07:46.917Z,18.00
2019-06-07T01:10:46.031Z,17.99
2019-06-07T01:12:51.021Z,17.98
2019-06-07T01:15:28.855Z,17.98
2019-06-07T01:20:28.653Z,17.94
2019-06-07T01:23:01.194Z,17.88
2019-06-07T01:25:31.956Z,17.87
2019-06-07T01:28:02.727Z,17.85
2019-06-07T01:30:34.738Z,17.83
2019-06-07T01:33:06.312Z,17.87
2019-06-07T01:35:37.131Z,17.86
2019-06-07T01:38:08.752Z,17.86
2019-06-07T01:40:39.421Z,17.86
2019-06-07T01:43:10.633Z,17.88
2019-06-07T01:45:43.807Z,17.95
2019-06-07T01:48:14.554Z,17.98
2019-06-07T01:50:45.283Z,18.02
2019-06-07T01:53:15.948Z,18.03
2019-06-07T01:55:46.902Z,18.01
2019-06-07T01:58:19.696Z,17.97
2019-06-07T02:00:50.680Z,18.00
2019-06-07T02:03:26.325Z,18.02
2019-06-07T02:05:54.487Z,18.05
2019-06-07T02:08:27.245Z,18.08
2019-06-07T02:10:57.952Z,18.11
2019-06-07T02:13:30.732Z,18.16
2019-06-07T02:16:01.575Z,18.17
2019-06-07T02:18:34.620Z,18.21
2019-06-07T02:21:05.084Z,18.20
2019-06-07T02:23:36.161Z,18.25
2019-06-07T02:26:07.144Z,18.28
2019-06-07T02:28:45.351Z,18.33
2019-06-07T02:31:10.488Z,18.38
2019-06-07T02:33:41.365Z,18.42
2019-06-07T02:36:12.047Z,18.41
2019-06-07T02:38:42.767Z,18.41
2019-06-07T02:41:13.650Z,18.43
2019-06-07T02:43:44.827Z,18.46
2019-06-07T02:46:31.890Z,18.46
2019-06-07T02:48:56.399Z,18.47
2019-06-07T02:51:32.656Z,18.48
2019-06-07T02:53:59.709Z,18.49
2019-06-07T02:56:45.011Z,18.52
2019-06-07T02:59:05.003Z,18.55
2019-06-07T03:01:41.354Z,18.64
2019-06-07T03:04:09.715Z,18.62
2019-06-07T03:06:43.905Z,18.68
2019-06-07T03:09:15.153Z,18.70
2019-06-07T03:11:48.837Z,18.73
2019-06-07T03:14:22.356Z,18.76
2019-06-07T03:16:56.963Z,18.79
2019-06-07T03:19:31.284Z,18.83
2019-06-07T03:22:04.639Z,18.87
2019-06-07T03:24:41.682Z,18.89
2019-06-07T03:27:34.053Z,18.90
2019-06-07T03:29:42.454Z,18.92
2019-06-07T03:32:13.178Z,18.90
2019-06-07T03:34:44.072Z,18.93
2019-06-07T03:37:14.759Z,18.98
2019-06-07T03:39:45.665Z,19.05
2019-06-07T03:42:16.327Z,19.08
2019-06-07T03:44:47.068Z,19.05
2019-06-07T03:47:18.509Z,19.13
2019-06-07T03:49:49.256Z,19.13
2019-06-07T03:52:20.001Z,19.18
2019-06-07T03:54:51.280Z,19.28
2019-06-07T03:57:22.040Z,19.37
2019-06-07T03:59:52.822Z,19.43
2019-06-07T04:02:23.536Z,19.50
2019-06-07T04:04:54.384Z,19.63
2019-06-07T04:07:25.281Z,19.78
2019-06-07T04:09:56.045Z,19.90
2019-06-07T04:12:28.409Z,19.88
2019-06-07T04:15:00.333Z,19.91
2019-06-07T04:17:33.844Z,19.94
2019-06-07T04:20:05.252Z,19.96
2019-06-07T04:22:39.737Z,19.94
2019-06-07T04:25:11.067Z,20.03
2019-06-07T04:27:41.936Z,20.09
2019-06-07T04:30:15.180Z,20.23
2019-06-07T04:32:45.920Z,20.33
2019-06-07T04:35:16.668Z,20.45
2019-06-07T04:37:47.640Z,20.31
2019-06-07T04:40:19.830Z,20.23
2019-06-07T04:42:50.884Z,20.20
2019-06-07T04:45:33.749Z,20.16
2019-06-07T04:47:56.051Z,20.18
2019-06-07T04:50:33.633Z,20.18
2019-06-07T04:53:02.818Z,20.07
2019-06-07T04:55:36.266Z,20.26
2019-06-07T04:58:06.831Z,20.48
2019-06-07T05:01:01.355Z,20.46
2019-06-07T05:03:11.042Z,20.42
2019-06-07T05:05:43.893Z,20.16
2019-06-07T05:08:27.734Z,20.09
2019-06-07T05:10:47.224Z,20.17
2019-06-07T05:13:18.009Z,20.22
2019-06-07T05:15:48.652Z,20.42
2019-06-07T05:18:19.720Z,20.69
2019-06-07T05:20:50.548Z,20.55
2019-06-07T05:24:00.130Z,20.21
2019-06-07T05:25:53.947Z,20.35
2019-06-07T05:28:24.811Z,20.21
2019-06-07T05:31:04.504Z,20.34
2019-06-07T05:33:28.263Z,20.71
2019-06-07T05:35:59.059Z,20.82
2019-06-07T05:38:31.027Z,21.21
2019-06-07T05:41:01.875Z,20.76
2019-06-07T05:43:34.985Z,20.71
2019-06-07T05:46:05.382Z,20.73
2019-06-07T05:48:40.782Z,20.66
2019-06-07T05:51:10.317Z,20.68
2019-06-07T05:53:43.122Z,20.89
2019-06-07T05:56:14.394Z,20.86
2019-06-07T05:58:45.807Z,20.43
2019-06-07T06:03:48.918Z,20.08
2019-06-07T06:06:19.809Z,20.05
2019-06-07T06:08:50.677Z,19.93
2019-06-07T06:11:21.414Z,19.67
2019-06-07T06:14:06.595Z,19.68
2019-06-07T06:16:25.326Z,19.85
2019-06-07T06:18:56.145Z,19.85
2019-06-07T06:21:27.220Z,20.05
2019-06-07T06:23:58.393Z,20.05
2019-06-07T06:26:29.923Z,20.06
2019-06-07T06:29:00.965Z,19.71
2019-06-07T06:31:32.597Z,19.43
2019-06-07T06:34:03.571Z,19.57
2019-06-07T06:36:35.029Z,19.49
2019-06-07T06:39:07.812Z,19.71
2019-06-07T06:41:53.720Z,19.76
2019-06-07T06:44:11.204Z,19.77
2019-06-07T06:46:46.280Z,19.83
2019-06-07T06:49:14.518Z,20.06
2019-06-07T06:51:47.843Z,19.95
2019-06-07T06:54:39.558Z,19.76
2019-06-07T06:56:52.853Z,19.31
2019-06-07T06:59:41.220Z,19.28
2019-06-07T07:01:56.253Z,19.30
2019-06-07T07:04:28.021Z,19.11
2019-06-07T07:06:59.607Z,18.98
2019-06-07T07:09:31.148Z,18.96
2019-06-07T07:12:12.205Z,19.27
2019-06-07T07:14:34.812Z,19.05
2019-06-07T07:17:05.672Z,19.13
2019-06-07T07:19:36.465Z,18.93
2019-06-07T07:22:08.371Z,19.21
2019-06-07T07:24:39.366Z,19.46
2019-06-07T07:27:10.323Z,19.20
2019-06-07T07:29:44.543Z,18.90
2019-06-07T07:32:14.867Z,18.98
2019-06-07T07:34:49.430Z,18.84
2019-06-07T07:37:18.318Z,18.73
2019-06-07T07:39:53.341Z,18.92
2019-06-07T07:42:21.988Z,18.93
2019-06-07T07:44:55.096Z,18.84
2019-06-07T07:47:25.343Z,18.79
2019-06-07T07:49:59.065Z,19.11
2019-06-07T07:52:29.889Z,19.85
2019-06-07T07:55:01.202Z,21.00
2019-06-07T07:57:34.835Z,21.32
2019-06-07T08:00:48.653Z,22.57
2019-06-07T08:02:41.908Z,22.01
2019-06-07T08:05:25.163Z,25.01
2019-06-07T08:07:49.909Z,23.72
2019-06-07T08:10:21.285Z,24.47
2019-06-07T08:13:17.552Z,24.68
2019-06-07T08:15:25.184Z,25.36
2019-06-07T08:18:01.170Z,24.20
2019-06-07T08:20:28.856Z,23.81
2019-06-07T08:23:01.397Z,25.04
2019-06-07T08:25:32.334Z,25.57
2019-06-07T08:28:10.440Z,24.86
2019-06-07T08:30:54.966Z,25.13
2019-06-07T08:33:25.898Z,26.87
2019-06-07T08:36:11.863Z,26.73
2019-06-07T08:38:27.311Z,26.43
2019-06-07T08:40:59.138Z,27.32
2019-06-07T08:43:26.467Z,28.95
2019-06-07T08:46:02.215Z,30.53
2019-06-07T08:48:30.542Z,28.89
2019-06-07T08:51:08.264Z,29.24
2019-06-07T08:53:34.895Z,28.63
2019-06-07T08:56:10.512Z,28.99
2019-06-07T08:58:39.006Z,29.13
2019-06-07T09:01:09.898Z,28.68
2019-06-07T09:03:41.534Z,26.38
2019-06-07T09:07:01.134Z,26.44
2019-06-07T09:08:45.307Z,26.78
2019-06-07T09:11:16.190Z,27.68
2019-06-07T09:13:47.164Z,28.88
2019-06-07T09:16:18.526Z,27.82
2019-06-07T09:18:49.302Z,26.45
2019-06-07T09:21:20.467Z,25.19
2019-06-07T09:23:51.509Z,27.43
2019-06-07T09:26:22.770Z,28.51
2019-06-07T09:28:57.637Z,28.90
2019-06-07T09:31:51.270Z,27.93
2019-06-07T09:34:08.643Z,28.50
2019-06-07T09:36:32.777Z,26.94
2019-06-07T09:39:09.568Z,25.53
2019-06-07T09:41:47.594Z,27.98
2019-06-07T09:44:23.770Z,29.16
2019-06-07T09:46:44.430Z,30.00
2019-06-07T09:49:28.982Z,31.54
2019-06-07T09:51:48.620Z,30.06
2019-06-07T09:56:52.354Z,29.80
2019-06-07T09:59:23.297Z,30.09
2019-06-07T10:01:53.939Z,29.26
2019-06-07T10:04:31.342Z,29.99
2019-06-07T10:07:04.025Z,30.14
2019-06-07T10:12:04.551Z,26.91
2019-06-07T10:14:36.589Z,28.17
2019-06-07T10:17:07.490Z,26.46
2019-06-07T10:19:38.507Z,28.10
2019-06-07T10:22:09.793Z,29.18
2019-06-07T10:24:40.956Z,30.83
2019-06-07T10:27:12.278Z,29.62
2019-06-07T10:29:43.295Z,26.76
2019-06-07T10:32:14.365Z,28.30
2019-06-07T10:34:45.084Z,28.12
2019-06-07T10:37:16.098Z,28.73
2019-06-07T10:39:49.089Z,28.22
2019-06-07T10:42:20.593Z,27.71
2019-06-07T10:44:52.465Z,28.70
2019-06-07T10:47:23.535Z,30.80
2019-06-07T10:49:54.531Z,31.87
2019-06-07T10:52:25.390Z,31.20
2019-06-07T10:54:56.584Z,29.69
2019-06-07T10:57:27.610Z,26.89
2019-06-07T10:59:58.602Z,26.65
2019-06-07T11:02:29.720Z,26.57
2019-06-07T11:05:01.693Z,30.06
2019-06-07T11:07:33.289Z,30.54
2019-06-07T11:10:14.967Z,29.01
2019-06-07T11:12:40.887Z,27.93
2019-06-07T11:15:14.988Z,28.91
2019-06-07T11:17:46.119Z,27.65
2019-06-07T11:20:18.950Z,27.29
2019-06-07T11:22:49.751Z,27.25
2019-06-07T11:25:21.157Z,28.54
2019-06-07T11:27:51.943Z,28.57
2019-06-07T11:30:24.083Z,28.52
2019-06-07T11:32:54.944Z,28.92
2019-06-07T11:35:25.880Z,28.28
2019-06-07T11:37:56.863Z,27.81
2019-06-07T11:40:34.839Z,29.19
2019-06-07T11:43:00.405Z,30.60
2019-06-07T11:45:31.227Z,31.97
2019-06-07T11:48:02.994Z,33.00
2019-06-07T11:50:33.990Z,34.25
2019-06-07T11:53:06.492Z,35.25
2019-06-07T11:55:37.662Z,35.83
2019-06-07T11:58:14.390Z,32.57
2019-06-07T12:00:43.018Z,33.99
2019-06-07T12:03:14.009Z,34.01
2019-06-07T12:05:44.771Z,33.75
2019-06-07T12:08:16.089Z,33.88
2019-06-07T12:10:47.326Z,33.64
2019-06-07T12:13:18.992Z,33.72
2019-06-07T12:15:50.083Z,33.95
2019-06-07T12:18:20.972Z,33.90
2019-06-07T12:20:51.734Z,33.65
2019-06-07T12:23:22.684Z,32.53
2019-06-07T12:25:53.528Z,32.83
2019-06-07T12:28:24.258Z,32.13
2019-06-07T12:30:55.373Z,32.19
2019-06-07T12:33:26.590Z,32.30
2019-06-07T12:35:57.621Z,30.88
2019-06-07T12:38:28.822Z,31.94
2019-06-07T12:41:00.267Z,31.56
2019-06-07T12:43:31.706Z,31.44
2019-06-07T12:46:03.122Z,30.67
2019-06-07T12:48:34.786Z,30.78
2019-06-07T12:51:06.823Z,30.23
2019-06-07T12:53:38.937Z,29.83
2019-06-07T12:56:09.849Z,30.77
2019-06-07T12:58:41.238Z,30.84
2019-06-07T13:01:15.954Z,31.28
2019-06-07T13:03:48.782Z,30.66
2019-06-07T13:06:19.760Z,30.70
2019-06-07T13:08:50.859Z,30.53
2019-06-07T13:11:28.151Z,30.51
2019-06-07T13:13:54.834Z,29.89
2019-06-07T13:16:25.925Z,30.12
2019-06-07T13:18:56.728Z,29.02
2019-06-07T13:21:28.662Z,30.49
2019-06-07T13:23:59.861Z,31.01
2019-06-07T13:26:31.291Z,30.94
2019-06-07T13:29:02.658Z,31.21
2019-06-07T13:31:33.660Z,30.35
2019-06-07T13:34:04.772Z,30.25
2019-06-07T13:36:35.702Z,31.26
2019-06-07T13:39:08.489Z,30.03
2019-06-07T13:41:43.236Z,31.03
2019-06-07T13:44:14.925Z,31.42
2019-06-07T13:46:45.948Z,31.76
2019-06-07T13:49:19.423Z,32.59
2019-06-07T13:51:51.316Z,31.88
2019-06-07T13:54:24.801Z,31.58
2019-06-07T13:57:01.959Z,32.21
2019-06-07T13:59:31.070Z,31.84
2019-06-07T14:02:02.588Z,31.83
2019-06-07T14:04:34.137Z,30.16
2019-06-07T14:07:05.158Z,30.15
2019-06-07T14:09:36.079Z,30.54
2019-06-07T14:12:07.991Z,30.40
2019-06-07T14:14:39.557Z,30.71
2019-06-07T14:17:11.424Z,31.34
2019-06-07T14:19:42.859Z,30.88
2019-06-07T14:22:14.145Z,30.91
2019-06-07T14:24:45.066Z,31.11
2019-06-07T14:27:16.424Z,31.09
2019-06-07T14:29:47.494Z,31.15
2019-06-07T14:32:18.382Z,31.09
2019-06-07T14:34:49.226Z,31.26
2019-06-07T14:37:20.890Z,30.77
2019-06-07T14:39:51.696Z,30.84
2019-06-07T14:42:23.437Z,30.71
2019-06-07T14:44:54.406Z,30.55
2019-06-07T14:47:26.062Z,30.68
2019-06-07T14:49:56.926Z,30.33
2019-06-07T14:52:28.453Z,30.39
2019-06-07T14:55:00.472Z,30.61
2019-06-07T14:57:31.341Z,30.14
2019-06-07T15:00:10.516Z,30.53
2019-06-07T15:02:38.366Z,30.73
2019-06-07T15:05:09.976Z,31.35
2019-06-07T15:07:41.765Z,31.37
2019-06-07T15:10:13.443Z,31.38
2019-06-07T15:12:44.140Z,30.95
2019-06-07T15:15:15.014Z,31.33
2019-06-07T15:17:45.939Z,31.56
2019-06-07T15:20:16.988Z,31.56
2019-06-07T15:22:48.034Z,30.51
2019-06-07T15:25:19.049Z,31.29
2019-06-07T15:27:49.793Z,31.62
2019-06-07T15:30:21.371Z,31.60
2019-06-07T15:32:52.219Z,32.13
2019-06-07T15:35:23.322Z,31.50
2019-06-07T15:37:55.715Z,31.43
2019-06-07T15:40:26.749Z,31.54
2019-06-07T15:42:57.589Z,31.41
2019-06-07T15:45:29.368Z,31.29
2019-06-07T15:48:00.293Z,31.00
2019-06-07T15:50:32.196Z,30.05
2019-06-07T15:53:03.189Z,29.36
2019-06-07T15:55:39.147Z,29.14
2019-06-07T15:58:06.640Z,28.62
2019-06-07T16:00:37.502Z,27.88
2019-06-07T16:03:08.586Z,28.03
2019-06-07T16:05:40.494Z,28.07
2019-06-07T16:08:11.822Z,27.81
2019-06-07T16:10:43.077Z,27.94
2019-06-07T16:13:14.319Z,27.84
2019-06-07T16:15:45.186Z,27.97
2019-06-07T16:18:16.011Z,28.11
2019-06-07T16:20:46.972Z,27.88
2019-06-07T16:23:17.653Z,27.79
2019-06-07T16:25:49.142Z,27.68
2019-06-07T16:28:21.479Z,27.78
2019-06-07T16:30:53.123Z,27.53
2019-06-07T16:33:23.985Z,27.90
2019-06-07T16:35:54.695Z,28.09
2019-06-07T16:38:25.506Z,28.26
2019-06-07T16:40:56.333Z,28.18
2019-06-07T16:43:27.498Z,28.20
2019-06-07T16:45:58.603Z,27.99
2019-06-07T16:48:29.680Z,28.18
2019-06-07T16:51:00.847Z,28.51
2019-06-07T16:53:31.909Z,28.92
2019-06-07T16:56:02.803Z,29.19
2019-06-07T16:58:33.724Z,29.02
2019-06-07T17:01:05.683Z,28.81
2019-06-07T17:03:37.312Z,28.53
2019-06-07T17:06:08.586Z,28.78
2019-06-07T17:08:40.137Z,29.32
2019-06-07T17:11:11.269Z,29.82
2019-06-07T17:13:42.685Z,29.75
2019-06-07T17:16:13.936Z,29.71
2019-06-07T17:18:45.557Z,29.22
2019-06-07T17:21:18.135Z,29.24
2019-06-07T17:23:49.461Z,29.10
2019-06-07T17:26:20.355Z,29.53
2019-06-07T17:28:52.653Z,29.59
2019-06-07T17:31:23.557Z,29.18
2019-06-07T17:33:54.341Z,28.57
2019-06-07T17:36:25.476Z,28.30
2019-06-07T17:38:56.561Z,28.12
2019-06-07T17:41:27.421Z,28.24
2019-06-07T17:44:00.382Z,28.12
2019-06-07T17:46:31.654Z,28.15
2019-06-07T17:49:02.546Z,27.71
2019-06-07T17:51:33.451Z,27.51
2019-06-07T17:54:07.337Z,27.13
2019-06-07T17:56:40.207Z,26.95
2019-06-07T17:59:11.045Z,26.90
2019-06-07T18:02:01.878Z,27.01
2019-06-07T18:04:14.873Z,26.15
2019-06-07T18:06:47.543Z,25.75
2019-06-07T18:09:19.152Z,25.72
2019-06-07T18:11:50.234Z,25.60
2019-06-07T18:14:21.657Z,25.59
2019-06-07T18:16:54.852Z,25.52
2019-06-07T18:19:25.717Z,25.49
2019-06-07T18:21:58.958Z,25.27
2019-06-07T18:24:29.088Z,25.07
2019-06-07T18:26:59.993Z,24.80
2019-06-07T18:29:33.653Z,24.81
2019-06-07T18:32:04.433Z,24.85
2019-06-07T18:34:35.501Z,24.70
2019-06-07T18:37:06.611Z,24.60
2019-06-07T18:39:38.173Z,24.53
2019-06-07T18:42:09.401Z,24.46
2019-06-07T18:44:40.255Z,24.49
2019-06-07T18:47:11.633Z,24.42
2019-06-07T18:49:42.725Z,24.08
2019-06-07T18:52:15.350Z,23.76
2019-06-07T18:54:46.842Z,23.45
2019-06-07T18:57:18.900Z,23.08
2019-06-07T18:59:52.256Z,22.82
2019-06-07T19:02:24.051Z,22.72
2019-06-07T19:04:56.350Z,22.70
2019-06-07T19:07:27.965Z,22.65
2019-06-07T19:09:59.531Z,22.58
2019-06-07T19:12:32.168Z,22.32
2019-06-07T19:15:04.044Z,22.28
2019-06-07T19:17:35.952Z,22.19
2019-06-07T19:20:08.469Z,22.03
2019-06-07T19:22:39.444Z,22.08
2019-06-07T19:25:10.925Z,21.98
2019-06-07T19:27:42.443Z,21.85
2019-06-07T19:30:14.864Z,21.65
2019-06-07T19:32:45.684Z,21.58
2019-06-07T19:35:18.705Z,21.37
2019-06-07T19:37:50.020Z,21.24
2019-06-07T19:40:21.452Z,21.13
2019-06-07T19:42:53.994Z,20.97
2019-06-07T19:45:30.730Z,20.82
2019-06-07T19:48:00.778Z,20.67
2019-06-07T19:50:33.328Z,20.45
2019-06-07T19:53:04.340Z,20.27
2019-06-07T19:55:35.326Z,20.12
2019-06-07T19:58:06.681Z,20.03
2019-06-07T20:00:38.251Z,19.94
2019-06-07T20:03:10.213Z,19.83
2019-06-07T20:05:43.104Z,19.67
2019-06-07T20:08:13.943Z,19.60
2019-06-07T20:10:44.883Z,19.40
2019-06-07T20:13:18.986Z,19.06
2019-06-07T20:15:50.447Z,18.82
2019-06-07T20:18:21.336Z,18.90
2019-06-07T20:20:52.607Z,18.92
2019-06-07T20:23:23.984Z,18.98
2019-06-07T20:25:55.290Z,18.93
2019-06-07T20:28:26.174Z,18.89
2019-06-07T20:30:57.701Z,18.88
2019-06-07T20:33:28.393Z,18.81
2019-06-07T20:36:00.465Z,18.70
2019-06-07T20:38:31.759Z,18.57
2019-06-07T20:41:03.297Z,18.24
2019-06-07T20:43:34.372Z,18.16
2019-06-07T20:46:06.675Z,18.12
2019-06-07T20:48:38.294Z,18.02
2019-06-07T20:51:11.549Z,18.01
2019-06-07T20:53:46.297Z,18.02
2019-06-07T20:56:17.328Z,18.05
2019-06-07T20:58:49.410Z,17.97
2019-06-07T21:01:20.231Z,17.97
2019-06-07T21:03:51.124Z,17.93
2019-06-07T21:06:21.903Z,17.89
2019-06-07T21:08:52.893Z,17.84
2019-06-07T21:11:24.291Z,17.62
2019-06-07T21:13:55.243Z,17.44
2019-06-07T21:16:27.109Z,17.29
2019-06-07T21:18:58.517Z,17.02
2019-06-07T21:21:31.516Z,17.02
2019-06-07T21:24:02.559Z,16.95
2019-06-07T21:26:33.828Z,17.06
2019-06-07T21:29:05.385Z,17.26
2019-06-07T21:31:36.474Z,17.29
2019-06-07T21:34:11.574Z,17.27
2019-06-07T21:36:41.302Z,17.18
2019-06-07T21:39:12.414Z,17.15
2019-06-07T21:41:43.463Z,17.10
2019-06-07T21:44:14.208Z,17.04
2019-06-07T21:46:45.182Z,16.90
2019-06-07T21:49:16.235Z,16.74
2019-06-07T21:51:47.110Z,16.51
2019-06-07T21:54:18.063Z,16.41
2019-06-07T21:56:49.183Z,16.38
2019-06-07T21:59:20.342Z,16.40
2019-06-07T22:01:52.953Z,16.36
2019-06-07T22:04:24.120Z,16.38
2019-06-07T22:06:55.080Z,16.40
2019-06-07T22:09:26.305Z,16.47
2019-06-07T22:11:57.087Z,16.41
2019-06-07T22:14:28.177Z,16.55
2019-06-07T22:16:59.397Z,16.62
2019-06-07T22:19:30.232Z,16.57
2019-06-07T22:22:03.310Z,16.53
2019-06-07T22:24:34.930Z,16.51
2019-06-07T22:27:07.062Z,16.47
2019-06-07T22:29:38.243Z,16.55
2019-06-07T22:32:08.904Z,16.51
2019-06-07T22:34:39.742Z,16.49
2019-06-07T22:37:11.306Z,16.55
2019-06-07T22:39:42.377Z,16.47
2019-06-07T22:42:15.290Z,16.44
2019-06-07T22:44:46.117Z,16.53
2019-06-07T22:47:18.303Z,16.48
2019-06-07T22:49:49.376Z,16.53
2019-06-07T22:52:20.248Z,16.47
2019-06-07T22:54:51.371Z,16.50
2019-06-07T22:57:23.966Z,16.48
2019-06-07T22:59:56.977Z,16.36
2019-06-07T23:02:27.842Z,16.20
2019-06-07T23:04:58.743Z,15.99
2019-06-07T23:07:29.493Z,15.92
2019-06-07T23:10:00.789Z,15.86
2019-06-07T23:12:31.759Z,15.81
2019-06-07T23:15:02.583Z,15.72
2019-06-07T23:17:33.476Z,15.58
2019-06-07T23:20:11.861Z,15.59
2019-06-07T23:22:43.375Z,15.62
2019-06-07T23:25:18.859Z,15.58
2019-06-07T23:27:47.943Z,15.61
2019-06-07T23:30:21.712Z,15.60
2019-06-07T23:32:52.455Z,15.60
2019-06-07T23:35:23.600Z,15.62
2019-06-07T23:37:54.547Z,15.63
2019-06-07T23:40:25.327Z,15.48
2019-06-07T23:42:56.704Z,15.59
2019-06-07T23:45:27.827Z,15.60
2019-06-07T23:47:58.645Z,15.65
2019-06-07T23:50:29.361Z,15.71
2019-06-07T23:53:00.147Z,15.79
2019-06-07T23:55:31.163Z,15.85
2019-06-07T23:58:01.968Z,15.92
